Terminal Aerodrome Forecast
Issued by NWS

Home | Current Version | Previous Version | Text Only | Print | Product List | Glossary On
Versions: 1 2 3 4 5 6 7 8 9 10 11 12 13 14 15 16 17 18 19 20 21 22 23 24
000
FTUS45 KGJT 231201 RRA
TAFDRO
TAF
KDRO 231201Z 2312/2412 31004KT P6SM OVC090
     FM231800 23007KT P6SM BKN120
     FM240000 29010G18KT P6SM SCT180
     FM240600 35004KT P6SM SCT180=

USA.gov is the U.S. government's official web portal to all federal, state and local government web resources and services.